VOI349 MMGL-MMMX
Flight info
| Callsign | VOI349 |
|---|---|
| Flight time | 0h 52m |
| Altitude | 37000 |
| Route | EMIRI1B EMIRI UT119 ESPOS ESPOS3A |
| Aircraft | A320/M-SDE3FGHIRWY/LB1 |
Departure
| Time | 2026-05-06 01:36 |
|---|---|
| Airport | Guadalajara International Airport (MMGL) |
Arrival
| Time | 2026-05-06 02:29 |
|---|---|
| Airport | Mexico City Benito Juárez International Airport (MMMX) |
| Time | Latitude | Longitude | Altitude | Speed | Heading |
|---|---|---|---|---|---|
| 2026-05-06 01:07 | 20.52493 | -103.30489 | 5020 ft | 0 kts | 21° |
| 2026-05-06 01:24 | 20.52488 | -103.30490 | 5016 ft | 3 kts | 21° |
| 2026-05-06 01:24 | 20.52464 | -103.30501 | 5017 ft | 4 kts | 32° |
| 2026-05-06 01:24 | 20.52448 | -103.30518 | 5020 ft | 4 kts | 83° |
| 2026-05-06 01:24 | 20.52450 | -103.30536 | 5020 ft | 0 kts | 117° |
| 2026-05-06 01:29 | 20.52447 | -103.30528 | 5020 ft | 2 kts | 117° |
| 2026-05-06 01:29 | 20.52435 | -103.30501 | 5015 ft | 6 kts | 112° |
| 2026-05-06 01:29 | 20.52412 | -103.30452 | 5017 ft | 9 kts | 132° |
| 2026-05-06 01:29 | 20.52353 | -103.30442 | 5019 ft | 10 kts | 193° |
| 2026-05-06 01:30 | 20.52286 | -103.30466 | 5019 ft | 10 kts | 192° |
| 2026-05-06 01:30 | 20.52237 | -103.30417 | 5018 ft | 11 kts | 110° |
| 2026-05-06 01:30 | 20.52210 | -103.30337 | 5019 ft | 12 kts | 110° |
| 2026-05-06 01:30 | 20.52180 | -103.30248 | 5013 ft | 13 kts | 109° |
| 2026-05-06 01:31 | 20.52151 | -103.30151 | 5014 ft | 14 kts | 108° |
| 2026-05-06 01:31 | 20.52117 | -103.30047 | 5016 ft | 15 kts | 110° |
| 2026-05-06 01:31 | 20.52080 | -103.29936 | 5019 ft | 15 kts | 109° |
| 2026-05-06 01:31 | 20.52026 | -103.29836 | 5018 ft | 16 kts | 125° |
| 2026-05-06 01:32 | 20.51957 | -103.29737 | 5020 ft | 17 kts | 127° |
| 2026-05-06 01:32 | 20.51884 | -103.29630 | 5020 ft | 18 kts | 126° |
| 2026-05-06 01:32 | 20.51806 | -103.29518 | 5020 ft | 19 kts | 126° |
| 2026-05-06 01:32 | 20.51725 | -103.29400 | 5020 ft | 20 kts | 126° |
| 2026-05-06 01:33 | 20.51653 | -103.29295 | 5020 ft | 16 kts | 126° |
| 2026-05-06 01:33 | 20.51587 | -103.29216 | 5020 ft | 13 kts | 156° |
| 2026-05-06 01:33 | 20.51520 | -103.29226 | 5018 ft | 0 kts | 202° |
| 2026-05-06 01:34 | 20.51519 | -103.29226 | 5018 ft | 0 kts | 202° |
| 2026-05-06 01:34 | 20.51513 | -103.29229 | 5020 ft | 2 kts | 202° |
| 2026-05-06 01:34 | 20.51486 | -103.29241 | 5020 ft | 6 kts | 203° |
| 2026-05-06 01:34 | 20.51438 | -103.29264 | 5020 ft | 9 kts | 208° |
| 2026-05-06 01:35 | 20.51428 | -103.29326 | 5020 ft | 8 kts | 294° |
| 2026-05-06 01:35 | 20.51431 | -103.29332 | 5020 ft | 0 kts | 294° |
| 2026-05-06 01:35 | 20.51431 | -103.29333 | 5020 ft | 1 kts | 294° |
| 2026-05-06 01:35 | 20.51481 | -103.29454 | 5021 ft | 54 kts | 294° |
| 2026-05-06 01:36 | 20.51755 | -103.30097 | 5022 ft | 131 kts | 294° |
| 2026-05-06 01:36 | 20.52207 | -103.31159 | 5141 ft | 180 kts | 295° |
| 2026-05-06 01:36 | 20.52775 | -103.32456 | 5885 ft | 201 kts | 296° |
| 2026-05-06 01:36 | 20.53345 | -103.33802 | 6833 ft | 198 kts | 294° |
| 2026-05-06 01:37 | 20.53926 | -103.35191 | 7413 ft | 212 kts | 294° |
| 2026-05-06 01:37 | 20.54550 | -103.36693 | 7589 ft | 231 kts | 294° |
| 2026-05-06 01:37 | 20.55219 | -103.38300 | 8074 ft | 240 kts | 293° |
| 2026-05-06 01:37 | 20.55905 | -103.39949 | 8738 ft | 245 kts | 294° |
| 2026-05-06 01:38 | 20.56600 | -103.41614 | 9448 ft | 249 kts | 294° |
| 2026-05-06 01:38 | 20.57312 | -103.43316 | 10149 ft | 252 kts | 292° |
| 2026-05-06 01:38 | 20.58032 | -103.45042 | 10801 ft | 256 kts | 291° |
| 2026-05-06 01:38 | 20.58663 | -103.46852 | 11226 ft | 269 kts | 277° |
| 2026-05-06 01:39 | 20.58564 | -103.48891 | 11443 ft | 287 kts | 250° |
| 2026-05-06 01:39 | 20.57488 | -103.50738 | 11645 ft | 306 kts | 221° |
| 2026-05-06 01:39 | 20.55572 | -103.51831 | 11783 ft | 327 kts | 193° |
| 2026-05-06 01:39 | 20.53258 | -103.51786 | 12006 ft | 345 kts | 165° |
| 2026-05-06 01:40 | 20.51157 | -103.50568 | 12521 ft | 354 kts | 142° |
| 2026-05-06 01:40 | 20.49440 | -103.48672 | 13176 ft | 359 kts | 130° |
| 2026-05-06 01:40 | 20.47979 | -103.46501 | 13848 ft | 362 kts | 126° |
| 2026-05-06 01:40 | 20.46604 | -103.44244 | 14426 ft | 364 kts | 125° |
| 2026-05-06 01:41 | 20.45196 | -103.41984 | 14984 ft | 367 kts | 127° |
| 2026-05-06 01:41 | 20.43716 | -103.39760 | 15537 ft | 369 kts | 128° |
| 2026-05-06 01:41 | 20.42157 | -103.37571 | 16047 ft | 372 kts | 130° |
| 2026-05-06 01:41 | 20.40537 | -103.35401 | 16546 ft | 376 kts | 131° |
| 2026-05-06 01:42 | 20.38873 | -103.33228 | 16765 ft | 380 kts | 131° |
| 2026-05-06 01:42 | 20.37279 | -103.31162 | 17240 ft | 382 kts | 131° |
| 2026-05-06 01:42 | 20.35589 | -103.28963 | 17804 ft | 385 kts | 131° |
| 2026-05-06 01:42 | 20.33893 | -103.26738 | 18329 ft | 388 kts | 131° |
| 2026-05-06 01:43 | 20.32192 | -103.24491 | 18793 ft | 391 kts | 131° |
| 2026-05-06 01:43 | 20.30481 | -103.22222 | 19283 ft | 393 kts | 131° |
| 2026-05-06 01:43 | 20.28769 | -103.19951 | 19862 ft | 392 kts | 131° |
| 2026-05-06 01:43 | 20.27074 | -103.17708 | 20438 ft | 392 kts | 131° |
| 2026-05-06 01:44 | 20.25349 | -103.15430 | 20944 ft | 393 kts | 131° |
| 2026-05-06 01:44 | 20.23628 | -103.13160 | 21456 ft | 395 kts | 131° |
| 2026-05-06 01:44 | 20.21898 | -103.10876 | 21924 ft | 397 kts | 131° |
| 2026-05-06 01:44 | 20.20163 | -103.08580 | 22377 ft | 399 kts | 131° |
| 2026-05-06 01:45 | 20.18436 | -103.06298 | 22748 ft | 401 kts | 131° |
| 2026-05-06 01:45 | 20.16685 | -103.03988 | 22821 ft | 401 kts | 131° |
| 2026-05-06 01:45 | 20.14933 | -103.01679 | 22830 ft | 400 kts | 131° |
| 2026-05-06 01:45 | 20.13184 | -102.99378 | 22830 ft | 400 kts | 131° |
| 2026-05-06 01:46 | 20.11430 | -102.97073 | 22861 ft | 401 kts | 131° |
| 2026-05-06 01:46 | 20.09668 | -102.94756 | 23261 ft | 404 kts | 131° |
| 2026-05-06 01:46 | 20.07901 | -102.92433 | 23672 ft | 406 kts | 131° |
| 2026-05-06 01:46 | 20.06119 | -102.90092 | 23997 ft | 409 kts | 131° |
| 2026-05-06 01:47 | 20.04322 | -102.87731 | 24326 ft | 412 kts | 131° |
| 2026-05-06 01:47 | 20.02516 | -102.85356 | 24638 ft | 415 kts | 131° |
| 2026-05-06 01:47 | 20.00688 | -102.82957 | 24960 ft | 418 kts | 132° |
| 2026-05-06 01:47 | 19.98849 | -102.80544 | 25299 ft | 421 kts | 131° |
| 2026-05-06 01:48 | 19.97001 | -102.78119 | 25625 ft | 424 kts | 131° |
| 2026-05-06 01:48 | 19.95137 | -102.75675 | 25930 ft | 427 kts | 131° |
| 2026-05-06 01:48 | 19.93259 | -102.73214 | 26249 ft | 430 kts | 131° |
| 2026-05-06 01:48 | 19.91372 | -102.70738 | 26555 ft | 433 kts | 131° |
| 2026-05-06 01:49 | 19.89469 | -102.68239 | 26842 ft | 436 kts | 131° |
| 2026-05-06 01:49 | 19.87554 | -102.65724 | 27143 ft | 439 kts | 131° |
| 2026-05-06 01:49 | 19.85652 | -102.63228 | 27442 ft | 442 kts | 131° |
| 2026-05-06 01:49 | 19.83708 | -102.60682 | 27749 ft | 445 kts | 131° |
| 2026-05-06 01:50 | 19.81776 | -102.58093 | 28052 ft | 449 kts | 128° |
| 2026-05-06 01:50 | 19.80134 | -102.55246 | 28351 ft | 456 kts | 119° |
| 2026-05-06 01:50 | 19.78865 | -102.52144 | 28662 ft | 461 kts | 115° |
| 2026-05-06 01:50 | 19.77661 | -102.48980 | 28970 ft | 464 kts | 115° |
| 2026-05-06 01:51 | 19.76446 | -102.45794 | 29295 ft | 467 kts | 115° |
| 2026-05-06 01:51 | 19.75219 | -102.42588 | 29611 ft | 470 kts | 115° |
| 2026-05-06 01:51 | 19.73982 | -102.39362 | 29910 ft | 473 kts | 115° |
| 2026-05-06 01:51 | 19.72738 | -102.36122 | 30202 ft | 475 kts | 115° |
| 2026-05-06 01:52 | 19.71490 | -102.32876 | 30626 ft | 475 kts | 115° |
| 2026-05-06 01:52 | 19.70245 | -102.29638 | 31036 ft | 474 kts | 115° |
| 2026-05-06 01:52 | 19.69003 | -102.26404 | 31447 ft | 473 kts | 115° |
| 2026-05-06 01:52 | 19.67760 | -102.23162 | 31845 ft | 473 kts | 115° |
| 2026-05-06 01:53 | 19.66518 | -102.19926 | 32228 ft | 473 kts | 115° |
| 2026-05-06 01:53 | 19.65274 | -102.16694 | 32731 ft | 473 kts | 115° |
| 2026-05-06 01:53 | 19.64042 | -102.13502 | 33160 ft | 474 kts | 115° |
| 2026-05-06 01:53 | 19.62779 | -102.10225 | 33589 ft | 474 kts | 115° |
| 2026-05-06 01:54 | 19.61530 | -102.06990 | 34024 ft | 474 kts | 115° |
| 2026-05-06 01:54 | 19.60297 | -102.03801 | 34405 ft | 474 kts | 114° |
| 2026-05-06 01:54 | 19.59046 | -102.00576 | 34848 ft | 471 kts | 114° |
| 2026-05-06 01:54 | 19.57804 | -101.97370 | 35288 ft | 469 kts | 114° |
| 2026-05-06 01:55 | 19.56570 | -101.94175 | 35702 ft | 467 kts | 114° |
| 2026-05-06 01:55 | 19.55338 | -101.90988 | 36093 ft | 466 kts | 114° |
| 2026-05-06 01:55 | 19.54111 | -101.87816 | 36476 ft | 464 kts | 114° |
| 2026-05-06 01:55 | 19.52886 | -101.84651 | 36851 ft | 463 kts | 114° |
| 2026-05-06 01:56 | 19.51663 | -101.81492 | 36978 ft | 463 kts | 114° |
| 2026-05-06 01:56 | 19.50439 | -101.78330 | 36989 ft | 463 kts | 114° |
| 2026-05-06 01:56 | 19.47988 | -101.72013 | 36929 ft | 463 kts | 114° |
| 2026-05-06 01:57 | 19.45526 | -101.65700 | 36875 ft | 463 kts | 114° |
| 2026-05-06 01:57 | 19.43085 | -101.59438 | 36862 ft | 463 kts | 114° |
| 2026-05-06 01:58 | 19.40628 | -101.53129 | 36847 ft | 464 kts | 114° |
| 2026-05-06 01:58 | 19.38161 | -101.46815 | 36849 ft | 464 kts | 114° |
| 2026-05-06 01:59 | 19.35697 | -101.40503 | 36816 ft | 464 kts | 114° |
| 2026-05-06 01:59 | 19.33229 | -101.34193 | 36816 ft | 464 kts | 114° |
| 2026-05-06 02:00 | 19.30759 | -101.27887 | 36742 ft | 464 kts | 114° |
| 2026-05-06 02:00 | 19.28283 | -101.21571 | 36745 ft | 464 kts | 114° |
| 2026-05-06 02:01 | 19.25811 | -101.15260 | 36747 ft | 464 kts | 114° |
| 2026-05-06 02:01 | 19.23329 | -101.08944 | 36751 ft | 465 kts | 114° |
| 2026-05-06 02:02 | 19.20843 | -101.02636 | 36756 ft | 465 kts | 114° |
| 2026-05-06 02:02 | 19.18370 | -100.96362 | 36706 ft | 465 kts | 114° |
| 2026-05-06 02:03 | 19.15883 | -100.90057 | 36708 ft | 465 kts | 114° |
| 2026-05-06 02:03 | 19.13390 | -100.83748 | 36688 ft | 465 kts | 114° |
| 2026-05-06 02:04 | 19.10901 | -100.77432 | 36694 ft | 465 kts | 114° |
| 2026-05-06 02:04 | 19.08411 | -100.71121 | 36689 ft | 465 kts | 114° |
| 2026-05-06 02:05 | 19.05904 | -100.64822 | 36682 ft | 465 kts | 114° |
| 2026-05-06 02:05 | 19.03419 | -100.58559 | 36685 ft | 465 kts | 114° |
| 2026-05-06 02:06 | 19.00925 | -100.52267 | 36697 ft | 464 kts | 114° |
| 2026-05-06 02:06 | 18.98422 | -100.45977 | 36701 ft | 464 kts | 114° |
| 2026-05-06 02:07 | 18.95913 | -100.39688 | 36716 ft | 464 kts | 114° |
| 2026-05-06 02:07 | 18.93402 | -100.33395 | 36718 ft | 465 kts | 114° |
| 2026-05-06 02:08 | 18.90896 | -100.27107 | 36764 ft | 465 kts | 114° |
| 2026-05-06 02:08 | 18.88386 | -100.20819 | 36765 ft | 464 kts | 114° |
| 2026-05-06 02:09 | 18.85873 | -100.14532 | 36744 ft | 464 kts | 114° |
| 2026-05-06 02:09 | 18.84615 | -100.11392 | 36371 ft | 465 kts | 114° |
| 2026-05-06 02:09 | 18.83363 | -100.08272 | 35547 ft | 470 kts | 114° |
| 2026-05-06 02:10 | 18.82084 | -100.05090 | 34716 ft | 472 kts | 115° |
| 2026-05-06 02:10 | 18.80797 | -100.01885 | 33854 ft | 474 kts | 115° |
| 2026-05-06 02:10 | 18.79506 | -99.98669 | 32803 ft | 477 kts | 115° |
| 2026-05-06 02:10 | 18.78213 | -99.95445 | 31834 ft | 477 kts | 115° |
| 2026-05-06 02:11 | 18.76917 | -99.92218 | 30845 ft | 477 kts | 115° |
| 2026-05-06 02:11 | 18.75651 | -99.89003 | 30018 ft | 468 kts | 111° |
| 2026-05-06 02:11 | 18.74835 | -99.85739 | 29361 ft | 454 kts | 101° |
| 2026-05-06 02:11 | 18.74620 | -99.82464 | 28734 ft | 444 kts | 90° |
| 2026-05-06 02:12 | 18.74967 | -99.79215 | 27982 ft | 451 kts | 79° |
| 2026-05-06 02:12 | 18.75899 | -99.76044 | 27225 ft | 453 kts | 69° |
| 2026-05-06 02:12 | 18.77180 | -99.73012 | 26490 ft | 452 kts | 67° |
| 2026-05-06 02:12 | 18.78466 | -99.69996 | 25730 ft | 448 kts | 68° |
| 2026-05-06 02:13 | 18.79727 | -99.67036 | 24983 ft | 437 kts | 68° |
| 2026-05-06 02:13 | 18.80948 | -99.64172 | 24284 ft | 430 kts | 68° |
| 2026-05-06 02:13 | 18.82168 | -99.61309 | 23573 ft | 424 kts | 68° |
| 2026-05-06 02:13 | 18.83366 | -99.58494 | 22798 ft | 418 kts | 68° |
| 2026-05-06 02:14 | 18.84543 | -99.55714 | 22117 ft | 413 kts | 68° |
| 2026-05-06 02:14 | 18.85712 | -99.52944 | 21395 ft | 413 kts | 68° |
| 2026-05-06 02:14 | 18.86875 | -99.50182 | 20704 ft | 409 kts | 68° |
| 2026-05-06 02:14 | 18.88016 | -99.47479 | 20090 ft | 398 kts | 68° |
| 2026-05-06 02:15 | 18.89137 | -99.44831 | 19443 ft | 391 kts | 67° |
| 2026-05-06 02:15 | 18.90242 | -99.42221 | 18804 ft | 388 kts | 67° |
| 2026-05-06 02:15 | 18.91319 | -99.39676 | 18440 ft | 367 kts | 67° |
| 2026-05-06 02:15 | 18.92323 | -99.37310 | 18491 ft | 340 kts | 67° |
| 2026-05-06 02:16 | 18.93258 | -99.35106 | 18369 ft | 318 kts | 68° |
| 2026-05-06 02:16 | 18.94138 | -99.33022 | 18067 ft | 305 kts | 66° |
| 2026-05-06 02:16 | 18.95270 | -99.31119 | 17699 ft | 318 kts | 53° |
| 2026-05-06 02:16 | 18.96642 | -99.29290 | 17272 ft | 316 kts | 53° |
| 2026-05-06 02:17 | 18.98012 | -99.27475 | 16865 ft | 316 kts | 53° |
| 2026-05-06 02:17 | 18.99371 | -99.25677 | 16292 ft | 309 kts | 53° |
| 2026-05-06 02:17 | 19.00703 | -99.23912 | 15907 ft | 307 kts | 53° |
| 2026-05-06 02:17 | 19.02010 | -99.22176 | 15671 ft | 302 kts | 52° |
| 2026-05-06 02:18 | 19.03312 | -99.20447 | 15496 ft | 299 kts | 53° |
| 2026-05-06 02:18 | 19.04597 | -99.18739 | 15258 ft | 295 kts | 53° |
| 2026-05-06 02:18 | 19.05861 | -99.17058 | 15017 ft | 288 kts | 52° |
| 2026-05-06 02:18 | 19.07095 | -99.15420 | 14801 ft | 282 kts | 53° |
| 2026-05-06 02:19 | 19.08301 | -99.13819 | 14676 ft | 275 kts | 53° |
| 2026-05-06 02:19 | 19.09476 | -99.12258 | 14570 ft | 268 kts | 53° |
| 2026-05-06 02:19 | 19.10629 | -99.10722 | 14469 ft | 265 kts | 52° |
| 2026-05-06 02:19 | 19.11775 | -99.09196 | 14373 ft | 264 kts | 53° |
| 2026-05-06 02:20 | 19.13679 | -99.06664 | 14205 ft | 266 kts | 53° |
| 2026-05-06 02:20 | 19.14829 | -99.05131 | 14111 ft | 266 kts | 54° |
| 2026-05-06 02:20 | 19.16107 | -99.03717 | 14008 ft | 268 kts | 35° |
| 2026-05-06 02:21 | 19.17852 | -99.03042 | 13944 ft | 272 kts | 6° |
| 2026-05-06 02:21 | 19.19727 | -99.03358 | 13657 ft | 279 kts | 334° |
| 2026-05-06 02:21 | 19.21271 | -99.04591 | 13297 ft | 277 kts | 317° |
| 2026-05-06 02:21 | 19.22651 | -99.05977 | 12993 ft | 273 kts | 316° |
| 2026-05-06 02:22 | 19.23958 | -99.07419 | 12667 ft | 269 kts | 306° |
| 2026-05-06 02:22 | 19.24853 | -99.09108 | 12388 ft | 258 kts | 292° |
| 2026-05-06 02:22 | 19.25518 | -99.10816 | 12122 ft | 245 kts | 293° |
| 2026-05-06 02:22 | 19.26158 | -99.12428 | 11870 ft | 230 kts | 293° |
| 2026-05-06 02:23 | 19.26763 | -99.13946 | 11631 ft | 217 kts | 293° |
| 2026-05-06 02:23 | 19.27338 | -99.15380 | 11383 ft | 206 kts | 294° |
| 2026-05-06 02:23 | 19.28065 | -99.16635 | 11161 ft | 195 kts | 309° |
| 2026-05-06 02:23 | 19.28974 | -99.17580 | 10967 ft | 178 kts | 322° |
| 2026-05-06 02:24 | 19.29992 | -99.18245 | 10775 ft | 168 kts | 335° |
| 2026-05-06 02:24 | 19.31044 | -99.18748 | 10597 ft | 165 kts | 336° |
| 2026-05-06 02:24 | 19.32086 | -99.19254 | 10409 ft | 165 kts | 335° |
| 2026-05-06 02:24 | 19.33128 | -99.19760 | 10220 ft | 165 kts | 336° |
| 2026-05-06 02:25 | 19.34194 | -99.20178 | 10013 ft | 163 kts | 352° |
| 2026-05-06 02:25 | 19.35318 | -99.20128 | 9817 ft | 162 kts | 16° |
| 2026-05-06 02:25 | 19.36312 | -99.19603 | 9673 ft | 161 kts | 40° |
| 2026-05-06 02:25 | 19.37014 | -99.18698 | 9525 ft | 159 kts | 60° |
| 2026-05-06 02:26 | 19.37585 | -99.17690 | 9394 ft | 160 kts | 60° |
| 2026-05-06 02:26 | 19.38155 | -99.16679 | 9295 ft | 161 kts | 60° |
| 2026-05-06 02:26 | 19.38732 | -99.15654 | 9195 ft | 163 kts | 60° |
| 2026-05-06 02:26 | 19.39318 | -99.14613 | 9064 ft | 166 kts | 61° |
| 2026-05-06 02:27 | 19.39910 | -99.13558 | 8850 ft | 167 kts | 60° |
| 2026-05-06 02:27 | 19.40498 | -99.12511 | 8567 ft | 165 kts | 61° |
| 2026-05-06 02:27 | 19.41081 | -99.11475 | 8200 ft | 161 kts | 61° |
| 2026-05-06 02:27 | 19.41640 | -99.10485 | 7892 ft | 156 kts | 59° |
| 2026-05-06 02:28 | 19.42196 | -99.09495 | 7603 ft | 154 kts | 58° |
| 2026-05-06 02:28 | 19.42734 | -99.08530 | 7384 ft | 151 kts | 60° |
| 2026-05-06 02:28 | 19.43255 | -99.07599 | 7306 ft | 134 kts | 59° |
| 2026-05-06 02:28 | 19.43644 | -99.06900 | 7302 ft | 86 kts | 59° |
| 2026-05-06 02:29 | 19.43848 | -99.06564 | 7303 ft | 29 kts | 36° |
| 2026-05-06 02:29 | 19.43965 | -99.06473 | 7303 ft | 14 kts | 31° |
| 2026-05-06 02:29 | 19.44055 | -99.06423 | 7303 ft | 15 kts | 28° |
| 2026-05-06 02:29 | 19.44147 | -99.06371 | 7303 ft | 8 kts | 28° |
| 2026-05-06 02:30 | 19.44149 | -99.06370 | 7303 ft | 0 kts | 28° |
| 2026-05-06 02:31 | 19.44150 | -99.06369 | 7303 ft | 0 kts | 27° |
| 2026-05-06 02:31 | 19.44151 | -99.06369 | 7303 ft | 1 kts | 27° |
| 2026-05-06 02:32 | 19.44164 | -99.06362 | 7303 ft | 4 kts | 28° |
| 2026-05-06 02:32 | 19.44204 | -99.06339 | 7303 ft | 9 kts | 27° |
| 2026-05-06 02:32 | 19.44278 | -99.06307 | 7302 ft | 14 kts | 21° |
| 2026-05-06 02:32 | 19.44373 | -99.06295 | 7303 ft | 13 kts | 336° |
| 2026-05-06 02:33 | 19.44388 | -99.06382 | 7303 ft | 15 kts | 242° |
| 2026-05-06 02:33 | 19.44349 | -99.06446 | 7303 ft | 16 kts | 237° |
| 2026-05-06 02:34 | 19.44127 | -99.06851 | 7303 ft | 13 kts | 238° |
| 2026-05-06 02:34 | 19.44074 | -99.06942 | 7303 ft | 16 kts | 239° |
| 2026-05-06 02:34 | 19.44014 | -99.07050 | 7303 ft | 18 kts | 239° |
| 2026-05-06 02:34 | 19.43963 | -99.07140 | 7303 ft | 13 kts | 239° |
| 2026-05-06 02:35 | 19.43913 | -99.07229 | 7303 ft | 15 kts | 239° |
| 2026-05-06 02:35 | 19.43854 | -99.07334 | 7303 ft | 18 kts | 239° |
| 2026-05-06 02:35 | 19.43785 | -99.07454 | 7303 ft | 20 kts | 239° |
| 2026-05-06 02:35 | 19.43710 | -99.07590 | 7303 ft | 22 kts | 240° |
| 2026-05-06 02:36 | 19.43629 | -99.07733 | 7303 ft | 24 kts | 239° |
| 2026-05-06 02:36 | 19.43546 | -99.07883 | 7303 ft | 23 kts | 239° |
| 2026-05-06 02:36 | 19.43477 | -99.08005 | 7303 ft | 18 kts | 240° |
| 2026-05-06 02:36 | 19.43410 | -99.08124 | 7303 ft | 17 kts | 238° |
| 2026-05-06 02:37 | 19.43359 | -99.08215 | 7303 ft | 13 kts | 239° |
| 2026-05-06 02:37 | 19.43335 | -99.08256 | 7303 ft | 0 kts | 239° |
| 2026-05-06 02:37 | 19.43329 | -99.08267 | 7303 ft | 3 kts | 243° |
| 2026-05-06 02:37 | 19.43330 | -99.08299 | 7303 ft | 6 kts | 288° |
| 2026-05-06 02:38 | 19.43365 | -99.08331 | 7303 ft | 8 kts | 327° |
| 2026-05-06 02:38 | 19.43383 | -99.08343 | 7303 ft | 0 kts | 328° |